Observations for GLASGOW AIRPORT, United Kingdom (EGPF)

EGPF 200620Z AUTO 24003KT 9000 NCD 07/06 Q1031  
EGPF 200550Z AUTO 26003KT 7000 NCD 06/05 Q1031  
EGPF 200520Z AUTO 27003KT 8000 NCD 06/05 Q1031  
EGPF 200450Z AUTO 34001KT 5000 BR NCD 06/06 Q1031   
EGPF 200420Z AUTO 11001KT 4200 BR NCD 06/06 Q1031   
EGPF 200350Z AUTO 03001KT 6000 NCD 07/06 Q1031  
EGPF 200320Z AUTO 00000KT 6000 NCD 07/06 Q1031  
EGPF 200250Z AUTO 24002KT 7000 NCD 06/06 Q1031  
EGPF 200220Z AUTO 24001KT 9000 NCD 07/06 Q1031  
EGPF 200150Z AUTO 26001KT 7000 NCD 07/06 Q1031  
EGPF 200120Z AUTO VRB01KT 9999 NCD 08/06 Q1031  
EGPF 200050Z AUTO 26002KT 9999 NCD 09/06 Q1031  
EGPF 200020Z AUTO 23003KT 9999 NCD 08/06 Q1031  
EGPF 192350Z AUTO VRB01KT 9999 NCD 09/07 Q1031  
EGPF 192320Z AUTO 27001KT 9999 NCD 10/07 Q1031  
EGPF 192250Z AUTO 30003KT 9999 NCD 11/08 Q1031  
EGPF 192220Z AUTO 34001KT 9999 NCD 12/08 Q1031  
EGPF 192150Z AUTO VRB02KT 9999 NCD 13/07 Q1031  
EGPF 192120Z AUTO 13001KT 9999 NCD 12/07 Q1031  
EGPF 192050Z AUTO VRB01KT 9999 NCD 13/06 Q1031  
EGPF 192020Z AUTO 29003KT 9999 NCD 13/07 Q1031  
EGPF 191950Z AUTO 28004KT 9999 NCD 14/07 Q1030  
EGPF 191920Z AUTO 31003KT 9999 NCD 15/08 Q1030  
EGPF 191850Z AUTO 22005KT 9999 NCD 15/08 Q1030  
EGPF 191820Z AUTO 25003KT 9999 NCD 16/07 Q1030  
EGPF 191750Z AUTO 24005KT 9999 NCD 17/07 Q1030  
EGPF 191720Z AUTO 25005KT 9999 NCD 18/07 Q1030  
EGPF 191650Z AUTO 24006KT 200V270 9999 NCD 20/07 Q1029  
EGPF 191620Z AUTO 22009KT 9999 NCD 21/06 Q1029  
EGPF 191550Z AUTO 21010KT 9999 NCD 21/05 Q1029  
EGPF 191520Z AUTO 25010KT 9999 NCD 21/06 Q1029  
EGPF 191450Z AUTO 22007KT 9999 NCD 22/07 Q1029  
EGPF 191420Z AUTO 18008KT 140V220 9999 NCD 21/04 Q1030  
EGPF 191350Z AUTO 21009KT 9999 NCD 21/05 Q1030  
EGPF 191320Z AUTO 06004KT 360V140 9999 NCD 20/09 Q1030  
EGPF 191250Z AUTO VRB03KT 9999 NCD 19/09 Q1030  
EGPF 191220Z AUTO 03005KT 360V060 9999 NCD 18/09 Q1030  
EGPF 191150Z AUTO 04005KT 360V110 9999 NCD 17/09 Q1030  
EGPF 191120Z AUTO 06006KT 020V080 9999 NCD 16/08 Q1030  
EGPF 191050Z AUTO 07005KT 340V140 9999 NCD 16/08 Q1031  
EGPF 191020Z AUTO 08006KT 050V110 9999 NCD 15/07 Q1031  
EGPF 190950Z AUTO 06006KT 030V110 9999 NCD 13/07 Q1031  
EGPF 190920Z AUTO 08007KT 9999 NCD 13/07 Q1031  
EGPF 190850Z AUTO 08006KT 050V130 9999 NCD 12/07 Q1031  
EGPF 190820Z AUTO 08004KT 020V120 9999 NCD 10/07 Q1031  
EGPF 190750Z AUTO VRB01KT 9000 NCD 09/06 Q1031  
EGPF 190720Z AUTO VRB02KT 7000 NCD 07/06 Q1031  
EGPF 190650Z AUTO 27003KT 6000 NCD 06/05 Q1031  
EGPF 190620Z VRB02KT 5000 BR NSC 04/04 Q1031
EGPF 190550Z AUTO VRB01KT 4900 BR NCD 05/05 Q1031